sensor_id;sensor_type;location;lat;lon;timestamp;pressure;altitude;pressure_sealevel;temperature;humidity
55610;BME280;41486;52.502;13.486;2022-12-29T00:01:09;100113.56;;;7.75;100.00
55610;BME280;41486;52.502;13.486;2022-12-29T00:03:37;100125.44;;;7.68;100.00
55610;BME280;41486;52.502;13.486;2022-12-29T00:06:05;100108.56;;;7.72;100.00
55610;BME280;41486;52.502;13.486;2022-12-29T00:08:33;100118.09;;;7.73;100.00
55610;BME280;41486;52.502;13.486;2022-12-29T00:11:11;100100.38;;;7.77;100.00
55610;BME280;41486;52.502;13.486;2022-12-29T00:13:39;100111.78;;;7.76;100.00
55610;BME280;41486;52.502;13.486;2022-12-29T00:16:26;100107.38;;;7.76;100.00
55610;BME280;41486;52.502;13.486;2022-12-29T00:18:54;100096.97;;;7.87;100.00
55610;BME280;41486;52.502;13.486;2022-12-29T00:21:23;100096.22;;;7.85;100.00
55610;BME280;41486;52.502;13.486;2022-12-29T00:24:12;100104.56;;;7.90;100.00
55610;BME280;41486;52.502;13.486;2022-12-29T00:27:11;100093.41;;;8.00;100.00
55610;BME280;41486;52.502;13.486;2022-12-29T00:29:57;100102.94;;;8.01;100.00
55610;BME280;41486;52.502;13.486;2022-12-29T00:32:54;100102.47;;;7.96;100.00
55610;BME280;41486;52.502;13.486;2022-12-29T00:35:43;100096.03;;;8.00;100.00
55610;BME280;41486;52.502;13.486;2022-12-29T00:38:13;100101.66;;;8.07;100.00
55610;BME280;41486;52.502;13.486;2022-12-29T00:40:59;100101.78;;;8.05;100.00
55610;BME280;41486;52.502;13.486;2022-12-29T00:43:46;100084.16;;;8.07;100.00
55610;BME280;41486;52.502;13.486;2022-12-29T00:46:31;100085.81;;;8.08;100.00
55610;BME280;41486;52.502;13.486;2022-12-29T00:48:59;100080.56;;;8.08;100.00
55610;BME280;41486;52.502;13.486;2022-12-29T00:51:45;100078.09;;;8.18;100.00
55610;BME280;41486;52.502;13.486;2022-12-29T00:54:14;100076.63;;;8.02;100.00
55610;BME280;41486;52.502;13.486;2022-12-29T00:56:45;100074.94;;;8.01;100.00
55610;BME280;41486;52.502;13.486;2022-12-29T00:59:18;100080.81;;;8.05;100.00
55610;BME280;41486;52.502;13.486;2022-12-29T01:01:46;100081.03;;;8.02;100.00
55610;BME280;41486;52.502;13.486;2022-12-29T01:04:15;100074.09;;;7.89;100.00
55610;BME280;41486;52.502;13.486;2022-12-29T01:06:44;100058.75;;;7.96;100.00
55610;BME280;41486;52.502;13.486;2022-12-29T01:09:15;100069.09;;;7.98;100.00
55610;BME280;41486;52.502;13.486;2022-12-29T01:12:02;100068.41;;;7.96;100.00
55610;BME280;41486;52.502;13.486;2022-12-29T01:14:31;100057.06;;;7.95;100.00
55610;BME280;41486;52.502;13.486;2022-12-29T01:16:59;100069.09;;;7.98;100.00
55610;BME280;41486;52.502;13.486;2022-12-29T01:19:27;100081.50;;;7.96;100.00
55610;BME280;41486;52.502;13.486;2022-12-29T01:21:55;100074.34;;;7.98;100.00
55610;BME280;41486;52.502;13.486;2022-12-29T01:24:23;100072.91;;;7.94;100.00
55610;BME280;41486;52.502;13.486;2022-12-29T01:26:52;100076.88;;;7.99;100.00
55610;BME280;41486;52.502;13.486;2022-12-29T01:29:21;100071.38;;;8.02;100.00
55610;BME280;41486;52.502;13.486;2022-12-29T01:31:50;100066.53;;;8.09;100.00
55610;BME280;41486;52.502;13.486;2022-12-29T01:34:18;100072.00;;;8.06;100.00
55610;BME280;41486;52.502;13.486;2022-12-29T01:36:46;100069.28;;;8.19;100.00
55610;BME280;41486;52.502;13.486;2022-12-29T01:39:15;100064.72;;;8.10;100.00
55610;BME280;41486;52.502;13.486;2022-12-29T01:41:43;100061.53;;;8.17;100.00
55610;BME280;41486;52.502;13.486;2022-12-29T01:44:46;100064.47;;;8.01;100.00
55610;BME280;41486;52.502;13.486;2022-12-29T01:47:22;100067.94;;;8.02;100.00
55610;BME280;41486;52.502;13.486;2022-12-29T01:49:53;100063.25;;;7.94;100.00
55610;BME280;41486;52.502;13.486;2022-12-29T01:52:22;100047.63;;;7.81;100.00
55610;BME280;41486;52.502;13.486;2022-12-29T01:54:53;100049.91;;;7.86;100.00
55610;BME280;41486;52.502;13.486;2022-12-29T01:57:27;100050.50;;;7.89;100.00
55610;BME280;41486;52.502;13.486;2022-12-29T01:59:59;100037.53;;;7.88;100.00
55610;BME280;41486;52.502;13.486;2022-12-29T02:02:40;100043.97;;;7.84;100.00
55610;BME280;41486;52.502;13.486;2022-12-29T02:05:13;100034.78;;;7.78;100.00
55610;BME280;41486;52.502;13.486;2022-12-29T02:07:44;100032.50;;;7.73;100.00
55610;BME280;41486;52.502;13.486;2022-12-29T02:10:15;100031.03;;;7.69;100.00
55610;BME280;41486;52.502;13.486;2022-12-29T02:12:45;100039.13;;;7.66;100.00
55610;BME280;41486;52.502;13.486;2022-12-29T02:15:14;100032.22;;;7.65;100.00
55610;BME280;41486;52.502;13.486;2022-12-29T02:18:01;100017.25;;;7.67;100.00
55610;BME280;41486;52.502;13.486;2022-12-29T02:26:59;100021.34;;;7.83;100.00
55610;BME280;41486;52.502;13.486;2022-12-29T02:29:57;100019.19;;;7.77;100.00
55610;BME280;41486;52.502;13.486;2022-12-29T02:32:38;100013.34;;;7.84;100.00
55610;BME280;41486;52.502;13.486;2022-12-29T02:35:16;100014.81;;;7.88;100.00
55610;BME280;41486;52.502;13.486;2022-12-29T02:37:59;100010.72;;;7.84;100.00
55610;BME280;41486;52.502;13.486;2022-12-29T02:40:38;100016.84;;;7.96;100.00
55610;BME280;41486;52.502;13.486;2022-12-29T02:43:16;100010.91;;;8.05;100.00
55610;BME280;41486;52.502;13.486;2022-12-29T02:45:56;100004.13;;;8.03;100.00
55610;BME280;41486;52.502;13.486;2022-12-29T02:48:31;100006.94;;;8.00;100.00
55610;BME280;41486;52.502;13.486;2022-12-29T02:51:02;99998.88;;;8.14;100.00
55610;BME280;41486;52.502;13.486;2022-12-29T02:53:33;100007.81;;;8.23;100.00
55610;BME280;41486;52.502;13.486;2022-12-29T02:56:31;100004.00;;;8.27;100.00
55610;BME280;41486;52.502;13.486;2022-12-29T02:59:00;99997.44;;;8.21;100.00
55610;BME280;41486;52.502;13.486;2022-12-29T03:01:36;99995.53;;;8.24;100.00
55610;BME280;41486;52.502;13.486;2022-12-29T03:04:35;99994.34;;;8.39;100.00
55610;BME280;41486;52.502;13.486;2022-12-29T03:07:19;99995.44;;;8.36;100.00
55610;BME280;41486;52.502;13.486;2022-12-29T03:09:59;99996.28;;;8.37;100.00
55610;BME280;41486;52.502;13.486;2022-12-29T03:12:30;99987.81;;;8.45;100.00
55610;BME280;41486;52.502;13.486;2022-12-29T03:15:21;99973.75;;;8.46;100.00
55610;BME280;41486;52.502;13.486;2022-12-29T03:18:13;99973.66;;;8.47;100.00
55610;BME280;41486;52.502;13.486;2022-12-29T03:20:49;99969.13;;;8.49;100.00
55610;BME280;41486;52.502;13.486;2022-12-29T03:23:23;99969.50;;;8.56;99.40
55610;BME280;41486;52.502;13.486;2022-12-29T03:25:56;99976.00;;;8.62;99.95
55610;BME280;41486;52.502;13.486;2022-12-29T03:28:29;99978.41;;;8.76;98.49
55610;BME280;41486;52.502;13.486;2022-12-29T03:31:03;99973.03;;;8.66;98.51
55610;BME280;41486;52.502;13.486;2022-12-29T03:33:37;99973.03;;;8.78;97.87
55610;BME280;41486;52.502;13.486;2022-12-29T03:36:13;99967.41;;;8.71;98.80
55610;BME280;41486;52.502;13.486;2022-12-29T03:38:48;99965.53;;;8.73;98.15
55610;BME280;41486;52.502;13.486;2022-12-29T03:41:36;99961.69;;;8.77;97.51
55610;BME280;41486;52.502;13.486;2022-12-29T03:44:09;99958.59;;;8.83;97.21
55610;BME280;41486;52.502;13.486;2022-12-29T03:46:39;99952.75;;;8.80;97.23
55610;BME280;41486;52.502;13.486;2022-12-29T03:49:14;99948.78;;;8.86;97.49
55610;BME280;41486;52.502;13.486;2022-12-29T03:51:45;99949.66;;;8.75;98.13
55610;BME280;41486;52.502;13.486;2022-12-29T03:54:18;99951.09;;;8.67;98.74
55610;BME280;41486;52.502;13.486;2022-12-29T03:56:58;99959.06;;;8.77;98.38
55610;BME280;41486;52.502;13.486;2022-12-29T03:59:47;99959.44;;;8.73;98.96
55610;BME280;41486;52.502;13.486;2022-12-29T04:02:18;99967.66;;;8.79;98.74
55610;BME280;41486;52.502;13.486;2022-12-29T04:04:46;99959.66;;;8.81;99.05
55610;BME280;41486;52.502;13.486;2022-12-29T04:07:21;99959.41;;;8.95;97.86
55610;BME280;41486;52.502;13.486;2022-12-29T04:09:52;99952.91;;;8.99;97.97
55610;BME280;41486;52.502;13.486;2022-12-29T04:12:23;99948.38;;;9.02;97.94
55610;BME280;41486;52.502;13.486;2022-12-29T04:14:52;99961.28;;;8.93;98.36
55610;BME280;41486;52.502;13.486;2022-12-29T04:17:20;99958.59;;;8.83;98.92
55610;BME280;41486;52.502;13.486;2022-12-29T04:19:53;99960.47;;;8.93;98.60
55610;BME280;41486;52.502;13.486;2022-12-29T04:22:46;99960.94;;;8.87;99.68
55610;BME280;41486;52.502;13.486;2022-12-29T04:25:15;99951.88;;;8.91;99.10
55610;BME280;41486;52.502;13.486;2022-12-29T04:27:53;99962.84;;;8.96;99.16
55610;BME280;41486;52.502;13.486;2022-12-29T04:30:43;99961.28;;;8.93;98.55
55610;BME280;41486;52.502;13.486;2022-12-29T04:33:17;99961.28;;;8.93;98.77
55610;BME280;41486;52.502;13.486;2022-12-29T04:35:53;99946.13;;;8.97;98.76
55610;BME280;41486;52.502;13.486;2022-12-29T04:38:24;99949.75;;;8.84;100.00
55610;BME280;41486;52.502;13.486;2022-12-29T04:40:54;99938.03;;;9.00;98.69
55610;BME280;41486;52.502;13.486;2022-12-29T04:43:23;99945.19;;;8.98;98.78
55610;BME280;41486;52.502;13.486;2022-12-29T04:46:08;99938.13;;;8.98;98.94
55610;BME280;41486;52.502;13.486;2022-12-29T04:48:48;99941.47;;;9.00;99.11
55610;BME280;41486;52.502;13.486;2022-12-29T04:51:38;99938.63;;;8.92;99.63
55610;BME280;41486;52.502;13.486;2022-12-29T04:54:13;99944.59;;;8.94;99.57
55610;BME280;41486;52.502;13.486;2022-12-29T04:56:46;99933.53;;;8.91;100.00
55610;BME280;41486;52.502;13.486;2022-12-29T04:59:16;99933.72;;;8.99;99.25
55610;BME280;41486;52.502;13.486;2022-12-29T05:01:50;99923.81;;;9.03;99.25
55610;BME280;41486;52.502;13.486;2022-12-29T05:04:18;99931.19;;;9.09;98.74
55610;BME280;41486;52.502;13.486;2022-12-29T05:06:47;99919.34;;;9.14;98.54
55610;BME280;41486;52.502;13.486;2022-12-29T05:09:17;99927.03;;;9.06;98.90
55610;BME280;41486;52.502;13.486;2022-12-29T05:11:46;99928.31;;;9.12;98.91
55610;BME280;41486;52.502;13.486;2022-12-29T05:14:18;99928.63;;;9.19;98.84
55610;BME280;41486;52.502;13.486;2022-12-29T05:16:49;99927.94;;;9.17;99.01
55610;BME280;41486;52.502;13.486;2022-12-29T05:19:17;99925.97;;;9.30;98.60
55610;BME280;41486;52.502;13.486;2022-12-29T05:21:46;99921.59;;;9.19;99.07
55610;BME280;41486;52.502;13.486;2022-12-29T05:24:15;99913.28;;;9.35;98.32
55610;BME280;41486;52.502;13.486;2022-12-29T05:26:45;99912.31;;;9.36;98.56
55610;BME280;41486;52.502;13.486;2022-12-29T05:29:45;99907.66;;;9.40;98.20
55610;BME280;41486;52.502;13.486;2022-12-29T05:32:17;99898.44;;;9.24;99.31
55610;BME280;41486;52.502;13.486;2022-12-29T05:34:46;99899.34;;;9.35;99.01
55610;BME280;41486;52.502;13.486;2022-12-29T05:37:14;99889.53;;;9.37;99.09
55610;BME280;41486;52.502;13.486;2022-12-29T05:39:47;99895.38;;;9.40;98.99
55610;BME280;41486;52.502;13.486;2022-12-29T05:42:17;99890.88;;;9.52;98.89
55610;BME280;41486;52.502;13.486;2022-12-29T05:44:54;99887.94;;;9.45;99.19
55610;BME280;41486;52.502;13.486;2022-12-29T05:47:54;99893.75;;;9.49;99.11
55610;BME280;41486;52.502;13.486;2022-12-29T05:50:37;99893.81;;;9.59;98.25
55610;BME280;41486;52.502;13.486;2022-12-29T05:53:11;99887.59;;;9.60;98.77
55610;BME280;41486;52.502;13.486;2022-12-29T05:55:42;99895.66;;;9.68;98.20
55610;BME280;41486;52.502;13.486;2022-12-29T05:58:16;99889.09;;;9.84;97.16
55610;BME280;41486;52.502;13.486;2022-12-29T06:00:48;99884.63;;;9.74;98.26
55610;BME280;41486;52.502;13.486;2022-12-29T06:03:19;99871.81;;;9.81;97.53
55610;BME280;41486;52.502;13.486;2022-12-29T06:05:47;99878.00;;;9.80;97.52
55610;BME280;41486;52.502;13.486;2022-12-29T06:08:16;99885.66;;;9.83;97.84
55610;BME280;41486;52.502;13.486;2022-12-29T06:10:44;99883.84;;;9.84;97.69
55610;BME280;41486;52.502;13.486;2022-12-29T06:13:13;99873.78;;;9.89;97.81
55610;BME280;41486;52.502;13.486;2022-12-29T06:15:48;99869.09;;;9.92;97.65
55610;BME280;41486;52.502;13.486;2022-12-29T06:18:18;99885.44;;;9.96;97.68
55610;BME280;41486;52.502;13.486;2022-12-29T06:20:47;99881.13;;;9.95;97.65
55610;BME280;41486;52.502;13.486;2022-12-29T06:23:17;99878.59;;;9.84;98.58
55610;BME280;41486;52.502;13.486;2022-12-29T06:25:47;99880.97;;;9.87;98.66
55610;BME280;41486;52.502;13.486;2022-12-29T06:28:16;99895.06;;;9.86;98.64
55610;BME280;41486;52.502;13.486;2022-12-29T06:30:46;99881.59;;;9.79;99.17
55610;BME280;41486;52.502;13.486;2022-12-29T06:33:15;99880.25;;;9.85;99.19
55610;BME280;41486;52.502;13.486;2022-12-29T06:35:43;99885.25;;;9.88;98.45
55610;BME280;41486;52.502;13.486;2022-12-29T06:38:13;99889.09;;;9.84;98.67
55610;BME280;41486;52.502;13.486;2022-12-29T06:40:42;99886.19;;;9.77;99.09
55610;BME280;41486;52.502;13.486;2022-12-29T06:43:37;99895.59;;;9.79;99.51
55610;BME280;41486;52.502;13.486;2022-12-29T06:46:37;99892.13;;;9.79;99.35
55610;BME280;41486;52.502;13.486;2022-12-29T06:49:04;99898.66;;;9.85;99.12
55610;BME280;41486;52.502;13.486;2022-12-29T06:51:32;99901.38;;;9.73;99.80
55610;BME280;41486;52.502;13.486;2022-12-29T06:54:00;99896.97;;;9.84;99.48
55610;BME280;41486;52.502;13.486;2022-12-29T06:56:28;99901.22;;;9.75;99.84
55610;BME280;41486;52.502;13.486;2022-12-29T06:58:56;99906.72;;;9.93;98.55
55610;BME280;41486;52.502;13.486;2022-12-29T07:01:26;99912.03;;;9.82;99.31
55610;BME280;41486;52.502;13.486;2022-12-29T07:03:56;99911.78;;;9.85;99.15
55610;BME280;41486;52.502;13.486;2022-12-29T07:06:24;99913.47;;;9.86;98.87
55610;BME280;41486;52.502;13.486;2022-12-29T07:08:52;99914.34;;;9.96;98.72
55610;BME280;41486;52.502;13.486;2022-12-29T07:11:21;99914.66;;;9.82;99.52
55610;BME280;41486;52.502;13.486;2022-12-29T07:13:50;99903.91;;;9.85;99.62
55610;BME280;41486;52.502;13.486;2022-12-29T07:16:18;99901.28;;;9.85;99.55
55610;BME280;41486;52.502;13.486;2022-12-29T07:18:46;99904.44;;;9.78;100.00
55610;BME280;41486;52.502;13.486;2022-12-29T07:21:16;99910.13;;;9.84;99.84
55610;BME280;41486;52.502;13.486;2022-12-29T07:23:44;99914.09;;;9.78;100.00
55610;BME280;41486;52.502;13.486;2022-12-29T07:26:13;99911.78;;;9.85;100.00
55610;BME280;41486;52.502;13.486;2022-12-29T07:28:41;99907.13;;;9.98;99.29
55610;BME280;41486;52.502;13.486;2022-12-29T07:31:30;99905.94;;;10.02;99.20
55610;BME280;41486;52.502;13.486;2022-12-29T07:33:58;99907.31;;;10.06;99.08
55610;BME280;41486;52.502;13.486;2022-12-29T07:36:28;99912.00;;;10.03;99.37
55610;BME280;41486;52.502;13.486;2022-12-29T07:39:00;99906.88;;;10.01;99.40
55610;BME280;41486;52.502;13.486;2022-12-29T07:41:28;99899.34;;;10.18;98.97
55610;BME280;41486;52.502;13.486;2022-12-29T07:43:57;99899.19;;;10.09;99.18
55610;BME280;41486;52.502;13.486;2022-12-29T07:46:31;99911.34;;;10.10;99.26
55610;BME280;41486;52.502;13.486;2022-12-29T07:49:19;99905.13;;;10.12;100.00
55610;BME280;41486;52.502;13.486;2022-12-29T07:51:48;99895.72;;;10.09;100.00
55610;BME280;41486;52.502;13.486;2022-12-29T07:54:16;99897.28;;;10.21;99.49
55610;BME280;41486;52.502;13.486;2022-12-29T07:56:45;99905.97;;;10.22;99.23
55610;BME280;41486;52.502;13.486;2022-12-29T07:59:13;99895.59;;;10.20;99.37
55610;BME280;41486;52.502;13.486;2022-12-29T08:01:41;99905.72;;;10.15;99.77
55610;BME280;41486;52.502;13.486;2022-12-29T08:04:09;99901.38;;;10.04;100.00
55610;BME280;41486;52.502;13.486;2022-12-29T08:06:38;99899.59;;;10.15;99.72
55610;BME280;41486;52.502;13.486;2022-12-29T08:09:07;99899.34;;;10.18;99.59
55610;BME280;41486;52.502;13.486;2022-12-29T08:11:48;99901.00;;;10.19;99.27
55610;BME280;41486;52.502;13.486;2022-12-29T08:14:16;99907.53;;;10.24;98.44
55610;BME280;41486;52.502;13.486;2022-12-29T08:16:44;99894.81;;;10.30;98.19
55610;BME280;41486;52.502;13.486;2022-12-29T08:19:13;99900.47;;;10.25;98.46
55610;BME280;41486;52.502;13.486;2022-12-29T08:21:41;99898.81;;;10.24;98.67
55610;BME280;41486;52.502;13.486;2022-12-29T08:24:10;99893.81;;;10.21;98.80
55610;BME280;41486;52.502;13.486;2022-12-29T08:26:38;99906.84;;;10.22;98.76
55610;BME280;41486;52.502;13.486;2022-12-29T08:29:06;99899.91;;;10.21;98.77
55610;BME280;41486;52.502;13.486;2022-12-29T08:31:34;99903.81;;;10.27;98.78
55610;BME280;41486;52.502;13.486;2022-12-29T08:34:02;99901.44;;;10.34;98.06
55610;BME280;41486;52.502;13.486;2022-12-29T08:36:33;99903.09;;;10.25;99.15
55610;BME280;41486;52.502;13.486;2022-12-29T08:39:01;99903.91;;;10.25;98.97
55610;BME280;41486;52.502;13.486;2022-12-29T08:41:30;99899.16;;;10.40;97.93
55610;BME280;41486;52.502;13.486;2022-12-29T08:43:59;99889.75;;;10.38;98.23
55610;BME280;41486;52.502;13.486;2022-12-29T08:46:26;99890.31;;;10.41;98.43
55610;BME280;41486;52.502;13.486;2022-12-29T08:48:54;99889.81;;;10.26;98.75
55610;BME280;41486;52.502;13.486;2022-12-29T08:51:23;99900.78;;;10.32;99.06
55610;BME280;41486;52.502;13.486;2022-12-29T08:53:51;99900.13;;;10.39;98.70
55610;BME280;41486;52.502;13.486;2022-12-29T08:56:20;99894.00;;;10.29;98.86
55610;BME280;41486;52.502;13.486;2022-12-29T08:58:55;99902.44;;;10.33;98.96
55610;BME280;41486;52.502;13.486;2022-12-29T09:01:23;99901.59;;;10.32;99.17
55610;BME280;41486;52.502;13.486;2022-12-29T09:03:53;99892.94;;;10.41;98.40
55610;BME280;41486;52.502;13.486;2022-12-29T09:06:44;99891.97;;;10.43;98.63
55610;BME280;41486;52.502;13.486;2022-12-29T09:09:35;99887.69;;;10.51;97.77
55610;BME280;41486;52.502;13.486;2022-12-29T09:12:03;99893.91;;;10.40;98.83
55610;BME280;41486;52.502;13.486;2022-12-29T09:14:33;99897.94;;;10.45;98.65
55610;BME280;41486;52.502;13.486;2022-12-29T09:17:01;99901.94;;;10.49;98.43
55610;BME280;41486;52.502;13.486;2022-12-29T09:19:47;99893.66;;;10.44;98.65
55610;BME280;41486;52.502;13.486;2022-12-29T09:22:15;99901.00;;;10.50;98.06
55610;BME280;41486;52.502;13.486;2022-12-29T09:24:43;99891.88;;;10.64;97.53
55610;BME280;41486;52.502;13.486;2022-12-29T09:27:10;99898.94;;;10.63;97.51
55610;BME280;41486;52.502;13.486;2022-12-29T09:29:40;99891.88;;;10.73;96.89
55610;BME280;41486;52.502;13.486;2022-12-29T09:32:08;99890.50;;;10.79;96.71
55610;BME280;41486;52.502;13.486;2022-12-29T09:34:42;99891.06;;;10.93;95.88
55610;BME280;41486;52.502;13.486;2022-12-29T09:37:10;99896.47;;;10.91;95.78
55610;BME280;41486;52.502;13.486;2022-12-29T09:39:38;99883.44;;;10.80;96.70
55610;BME280;41486;52.502;13.486;2022-12-29T09:42:13;99885.81;;;10.83;96.53
55610;BME280;41486;52.502;13.486;2022-12-29T09:44:54;99872.66;;;10.83;96.26
55610;BME280;41486;52.502;13.486;2022-12-29T09:47:24;99871.78;;;10.82;96.53
55610;BME280;41486;52.502;13.486;2022-12-29T09:49:55;99866.13;;;10.77;97.09
55610;BME280;41486;52.502;13.486;2022-12-29T09:52:28;99880.81;;;10.99;96.02
55610;BME280;41486;52.502;13.486;2022-12-29T09:55:00;99863.91;;;11.02;95.81
55610;BME280;41486;52.502;13.486;2022-12-29T09:57:43;99871.09;;;11.19;94.78
55610;BME280;41486;52.502;13.486;2022-12-29T10:00:16;99873.88;;;11.28;94.20
55610;BME280;41486;52.502;13.486;2022-12-29T10:02:48;99870.13;;;11.30;93.61
55610;BME280;41486;52.502;13.486;2022-12-29T10:05:29;99862.75;;;11.34;93.17
55610;BME280;41486;52.502;13.486;2022-12-29T10:08:10;99867.31;;;11.42;93.37
55610;BME280;41486;52.502;13.486;2022-12-29T10:10:48;99870.09;;;11.40;93.36
55610;BME280;41486;52.502;13.486;2022-12-29T10:13:28;99873.16;;;11.45;93.26
55610;BME280;41486;52.502;13.486;2022-12-29T10:16:06;99865.06;;;11.57;92.39
55610;BME280;41486;52.502;13.486;2022-12-29T10:18:58;99890.19;;;11.51;92.71
55610;BME280;41486;52.502;13.486;2022-12-29T10:21:43;99868.66;;;11.56;92.62
55610;BME280;41486;52.502;13.486;2022-12-29T10:24:16;99881.19;;;11.54;92.54
55610;BME280;41486;52.502;13.486;2022-12-29T10:26:47;99878.34;;;11.65;92.24
55610;BME280;41486;52.502;13.486;2022-12-29T10:29:18;99862.66;;;11.73;91.91
55610;BME280;41486;52.502;13.486;2022-12-29T10:31:50;99868.47;;;11.77;91.59
55610;BME280;41486;52.502;13.486;2022-12-29T10:34:26;99865.56;;;11.80;91.72
55610;BME280;41486;52.502;13.486;2022-12-29T10:37:00;99867.88;;;11.83;91.17
55610;BME280;41486;52.502;13.486;2022-12-29T10:39:30;99865.38;;;11.91;90.77
55610;BME280;41486;52.502;13.486;2022-12-29T10:42:07;99859.66;;;12.06;90.06
55610;BME280;41486;52.502;13.486;2022-12-29T10:44:37;99851.28;;;12.10;89.75
55610;BME280;41486;52.502;13.486;2022-12-29T10:47:13;99854.88;;;12.19;89.06
55610;BME280;41486;52.502;13.486;2022-12-29T10:49:45;99851.53;;;12.17;88.95
55610;BME280;41486;52.502;13.486;2022-12-29T10:52:16;99857.88;;;12.24;88.54
55610;BME280;41486;52.502;13.486;2022-12-29T10:54:47;99845.75;;;12.31;88.29
55610;BME280;41486;52.502;13.486;2022-12-29T10:57:24;99858.41;;;12.28;88.44
55610;BME280;41486;52.502;13.486;2022-12-29T10:59:53;99837.63;;;12.25;88.30
55610;BME280;41486;52.502;13.486;2022-12-29T11:02:48;99848.72;;;12.28;88.47
55610;BME280;41486;52.502;13.486;2022-12-29T11:05:25;99849.34;;;12.40;87.50
55610;BME280;41486;52.502;13.486;2022-12-29T11:08:00;99843.00;;;12.33;87.60
55610;BME280;41486;52.502;13.486;2022-12-29T11:10:35;99842.91;;;12.43;87.17
55610;BME280;41486;52.502;13.486;2022-12-29T11:13:11;99847.50;;;12.41;87.08
55610;BME280;41486;52.502;13.486;2022-12-29T11:15:41;99834.03;;;12.44;86.93
55610;BME280;41486;52.502;13.486;2022-12-29T11:18:33;99849.00;;;12.43;87.01
55610;BME280;41486;52.502;13.486;2022-12-29T11:21:05;99860.31;;;12.36;87.62
55610;BME280;41486;52.502;13.486;2022-12-29T11:23:36;99847.56;;;12.31;88.28
55610;BME280;41486;52.502;13.486;2022-12-29T11:26:13;99846.88;;;12.29;88.49
55610;BME280;41486;52.502;13.486;2022-12-29T11:28:44;99834.84;;;12.26;89.26
55610;BME280;41486;52.502;13.486;2022-12-29T11:31:16;99872.56;;;12.27;89.36
55610;BME280;41486;52.502;13.486;2022-12-29T11:33:46;99858.47;;;12.18;90.35
55610;BME280;41486;52.502;13.486;2022-12-29T11:36:16;99850.19;;;12.13;91.78
55610;BME280;41486;52.502;13.486;2022-12-29T11:38:49;99857.03;;;12.06;92.99
55610;BME280;41486;52.502;13.486;2022-12-29T11:41:21;99861.19;;;11.98;95.12
55610;BME280;41486;52.502;13.486;2022-12-29T11:43:51;99859.16;;;11.82;97.24
55610;BME280;41486;52.502;13.486;2022-12-29T11:46:22;99873.47;;;11.70;98.60
55610;BME280;41486;52.502;13.486;2022-12-29T11:48:53;99868.66;;;11.65;99.60
55610;BME280;41486;52.502;13.486;2022-12-29T11:51:30;99864.78;;;11.60;100.00
55610;BME280;41486;52.502;13.486;2022-12-29T11:54:01;99872.53;;;11.61;99.47
55610;BME280;41486;52.502;13.486;2022-12-29T11:56:34;99872.28;;;11.64;99.20
55610;BME280;41486;52.502;13.486;2022-12-29T11:59:39;99868.00;;;11.54;100.00
55610;BME280;41486;52.502;13.486;2022-12-29T12:02:31;99877.56;;;11.45;100.00
55610;BME280;41486;52.502;13.486;2022-12-29T12:05:24;99895.50;;;11.31;100.00
55610;BME280;41486;52.502;13.486;2022-12-29T12:07:58;99896.31;;;11.22;100.00
55610;BME280;41486;52.502;13.486;2022-12-29T12:10:29;99885.38;;;10.97;100.00
55610;BME280;41486;52.502;13.486;2022-12-29T12:13:04;99908.94;;;10.69;100.00
55610;BME280;41486;52.502;13.486;2022-12-29T12:15:36;99909.44;;;10.44;100.00
55610;BME280;41486;52.502;13.486;2022-12-29T12:18:17;99879.53;;;10.14;100.00
55610;BME280;41486;52.502;13.486;2022-12-29T12:20:49;99884.47;;;9.97;100.00
55610;BME280;41486;52.502;13.486;2022-12-29T12:23:34;99900.19;;;9.87;100.00
55610;BME280;41486;52.502;13.486;2022-12-29T12:26:10;99892.44;;;9.86;100.00
55610;BME280;41486;52.502;13.486;2022-12-29T12:28:46;99889.94;;;9.84;100.00
55610;BME280;41486;52.502;13.486;2022-12-29T12:31:21;99893.66;;;9.82;100.00
55610;BME280;41486;52.502;13.486;2022-12-29T12:33:57;99890.19;;;9.81;100.00
55610;BME280;41486;52.502;13.486;2022-12-29T12:36:43;99877.88;;;9.82;100.00
55610;BME280;41486;52.502;13.486;2022-12-29T12:39:24;99866.69;;;9.79;100.00
55610;BME280;41486;52.502;13.486;2022-12-29T12:42:06;99880.50;;;9.82;100.00
55610;BME280;41486;52.502;13.486;2022-12-29T12:44:48;99882.56;;;9.78;100.00
55610;BME280;41486;52.502;13.486;2022-12-29T12:47:32;99874.81;;;9.76;100.00
55610;BME280;41486;52.502;13.486;2022-12-29T12:50:29;99869.00;;;9.73;100.00
55610;BME280;41486;52.502;13.486;2022-12-29T12:53:16;99861.25;;;9.71;100.00
55610;BME280;41486;52.502;13.486;2022-12-29T12:56:03;99894.31;;;9.74;100.00
55610;BME280;41486;52.502;13.486;2022-12-29T12:58:43;99883.41;;;9.78;100.00
55610;BME280;41486;52.502;13.486;2022-12-29T13:01:24;99876.63;;;9.76;100.00
55610;BME280;41486;52.502;13.486;2022-12-29T13:04:08;99869.66;;;9.65;100.00
55610;BME280;41486;52.502;13.486;2022-12-29T13:06:47;99863.34;;;9.77;100.00
55610;BME280;41486;52.502;13.486;2022-12-29T13:09:31;99873.88;;;10.18;100.00
55610;BME280;41486;52.502;13.486;2022-12-29T13:12:15;99871.63;;;10.14;100.00
55610;BME280;41486;52.502;13.486;2022-12-29T13:14:54;99878.69;;;10.03;100.00
55610;BME280;41486;52.502;13.486;2022-12-29T13:17:30;99885.28;;;9.98;100.00
55610;BME280;41486;52.502;13.486;2022-12-29T13:20:15;99888.75;;;11.66;100.00
55610;BME280;41486;52.502;13.486;2022-12-29T13:22:52;99889.66;;;12.05;100.00
55610;BME280;41486;52.502;13.486;2022-12-29T13:25:29;99883.31;;;11.20;100.00
55610;BME280;41486;52.502;13.486;2022-12-29T13:28:05;99886.78;;;10.82;100.00
55610;BME280;41486;52.502;13.486;2022-12-29T13:30:47;99878.13;;;10.50;100.00
55610;BME280;41486;52.502;13.486;2022-12-29T13:33:23;99884.09;;;10.43;100.00
55610;BME280;41486;52.502;13.486;2022-12-29T13:35:54;99885.81;;;10.32;100.00